Andrews Bridge, Pennsylvania
Current Conditions -  °F | °C
As of 9:15 AM on Sunday 21 Dec 2014 (Local Time) from KMQS Reporting Station
Clear Clear  
Wind Chill: 26°   Ceiling: Unl
Heat Index: 32°   Visibility: 9mi
Dew Point: 27°   Wind: 7mph
Humidity: 80%   Direction: 310°NW
Pressure: 30.32"   Gusts: NA
Location:  39.9118°N, 76.0265°W
Report Text: KMQS 211415Z AUTO 31006KT 9SM CLR 00/M03 A3032 RMK AO2
Loading
Personal Weather Stations






























Interactive Weather Map New forecast layout! Learn more

10-Day Weather Forecast

Advertisements
Track Severe Weather on mobile